Weather observations for the past three days for
Nebraska City, Nebraska City Municipal Airport
Imperial (Metric)
Date Time (cdt) Wind (mph) Vis. (mi.) Weather Sky Cond. Temperature (ºF) Relative Humidity Wind Chill (°F) Heat Index (°F) Pressure Precipitation (in)
Air Dwpt 6 hour altimeter (in) sea level (mb) 1 hr 3 hr 6 hr
Max. Min.
02 15:35 Calm 10.00 Fair CLR 63 31.6 31% 30.09 0.0
02 15:15 Calm 10.00 Fair CLR 63 33.1 33% 30.1 0.0
02 14:35 NW 5 10.00 Fair CLR 62.4 32.7 33% 30.12 0.0
02 14:15 N 3 10.00 Fair CLR 61.2 32.2 34% 30.12 0.0
02 13:55 W 6 10.00 Fair CLR 61.5 32.9 34% 30.13 0.0
02 13:35 N 8 10.00 Fair CLR 60.3 30.9 33% 30.14 0.0
02 13:15 NW 8 10.00 Fair CLR 60.4 30 32% 30.14 0.0
02 12:55 W 8 10.00 Fair CLR 59.4 29.3 59.9 35.4 32% 30.15 0.0
02 12:35 N 5 10.00 Fair CLR 59 28.6 31% 30.16 0.0
02 12:15 NW 3 10.00 Fair CLR 58.5 29.3 33% 30.16 0.0
02 11:55 NW 15 G 20 10.00 Fair CLR 57.6 29.3 34% 30.17 0.0
02 11:35 W 9 G 17 10.00 Fair CLR 57.2 30.6 36% 30.17 0.0
02 11:15 NW 8 10.00 Fair CLR 55.9 29.8 37% 30.18 0.0
02 10:55 NW 8 10.00 Fair CLR 55.8 31.3 39% 30.18 0.0
02 10:35 W 5 10.00 Fair CLR 54.7 30.6 40% 30.19 0.0
02 10:15 W 9 10.00 Fair CLR 54.1 32.2 43% 30.19 0.0
02 09:55 W 8 10.00 Fair CLR 53.4 30.6 42% 30.19 0.0
02 09:35 W 7 10.00 Fair CLR 51.8 29.5 42% 30.19 0.0
02 09:15 W 6 10.00 Fair CLR 51.1 30.6 45% 30.19 0.0
02 08:55 NW 5 10.00 Fair CLR 49.3 30.6 49% 48 30.19 0.0
02 08:35 NW 3 10.00 Fair CLR 47.5 32.7 57% 30.19 0.0
02 08:15 NW 5 10.00 Fair CLR 45 32.5 62% 43 30.18 0.0
02 07:55 NW 6 10.00 Fair CLR 41.9 32.2 69% 39 30.19 0.0
02 07:35 NW 5 10.00 Fair CLR 40.1 31.1 70% 37 30.18 0.0
02 07:15 NW 7 10.00 Fair CLR 36.9 29.3 74% 32 30.18 0.0
02 06:55 NW 7 10.00 Fair CLR 35.2 28.6 43.7 34.9 77% 30 30.17 0.0
02 06:35 NW 7 10.00 Fair CLR 35.8 27.9 73% 31 30.17 0.0
02 06:15 NW 6 10.00 Fair CLR 36.5 27.5 70% 32 30.17 0.0
02 05:55 NW 7 10.00 Fair CLR 36.5 27.3 69% 32 30.16 0.0
02 05:35 NW 6 10.00 Fair CLR 37.8 27.3 66% 34 30.16 0.0
02 05:15 NW 6 10.00 Fair CLR 38.3 26.6 63% 34 30.16 0.0
02 04:55 NW 6 10.00 Fair CLR 38.8 26.6 62% 35 30.16 0.0
02 04:35 NW 6 10.00 Fair CLR 39.7 26.4 59% 36 30.15 0.0
02 04:15 NW 6 10.00 Fair CLR 40.1 26.4 58% 37 30.15 0.0
02 03:55 N 5 10.00 Fair CLR 40.3 26.4 58% 38 30.15 0.0
02 03:35 N 5 10.00 Fair CLR 41.4 26.2 55% 39 30.14 0.0
02 03:15 N 6 10.00 Fair CLR 41.4 26.4 55% 38 30.14 0.0
02 02:55 N 5 10.00 Fair CLR 42.6 25.5 51% 40 30.15 0.0
02 02:35 N 5 10.00 Fair CLR 42.8 25.7 51% 41 30.15 0.0
02 02:15 N 5 10.00 Fair CLR 43.7 25.5 49% 42 30.15 0.0
02 01:55 N 5 10.00 Fair CLR 42.8 26.4 52% 41 30.16 0.0
02 01:35 N 5 10.00 Fair CLR 42.6 26.6 53% 40 30.15 0.0
02 01:15 N 5 10.00 Fair CLR 43.2 26.4 52% 41 30.15 0.0
02 00:55 N 5 10.00 Fair CLR 43.5 26.8 56.1 42.8 52% 41 30.15 0.0
02 00:35 N 6 10.00 Fair CLR 43.5 27 52% 41 30.15 0.0
02 00:15 N 5 10.00 Fair CLR 44.2 26.6 50% 42 30.14 0.0
01 23:55 N 5 10.00 Fair CLR 44.4 27.5 52% 42 30.14 0.0
01 23:35 N 5 10.00 Fair CLR 44.8 27.3 50% 43 30.14 0.0
01 23:15 N 5 10.00 Fair CLR 45.1 27.5 50% 43 30.14 0.0
01 22:55 N 5 10.00 Fair CLR 45.5 27.3 49% 44 30.14 0.0
01 22:35 N 5 10.00 Fair CLR 45.9 27.3 48% 44 30.14 0.0
01 22:15 N 6 10.00 Fair CLR 45.9 27.5 49% 43 30.13 0.0
01 21:55 N 6 10.00 Fair CLR 45.7 28 50% 43 30.13 0.0
01 21:35 N 7 10.00 Fair CLR 46 28 50% 43 30.12 0.0
01 21:15 N 7 10.00 Fair CLR 47.3 27.9 47% 44 30.11 0.0
01 20:35 N 8 10.00 Fair CLR 50 27.1 41% 47 30.09 0.0
01 20:15 N 8 10.00 Fair CLR 51.6 26.6 38% 30.08 0.0
01 19:55 N 12 G 18 10.00 Fair CLR 53.1 26.2 35% 30.08 0.0
01 19:35 N 13 10.00 Fair CLR 54.3 26.6 34% 30.08 0.0
01 19:15 N 14 10.00 Fair CLR 55.2 25.5 32% 30.07 0.0
01 18:55 N 13 G 21 10.00 Fair CLR 56.3 26.1 60.6 56.3 31% 30.07 0.0
01 18:35 N 16 G 23 10.00 Fair CLR 56.8 25.9 30% 30.07 0.0
01 18:15 N 16 G 22 10.00 Fair CLR 57.6 27.3 31% 30.07 0.0
01 17:55 N 13 G 20 10.00 Fair CLR 57.9 28 32% 30.06 0.0
01 17:35 N 17 G 23 10.00 Fair CLR 58.1 28.9 33% 30.06 0.0
01 17:15 NW 15 G 23 10.00 Fair CLR 59.4 28.9 32% 30.05 0.0
01 16:55 N 16 G 23 10.00 Fair CLR 59 28.8 32% 30.05 0.0
01 16:35 N 14 G 21 10.00 Partly Cloudy SCT080 59.4 30.7 34% 30.05 0.0
01 16:15 NW 12 10.00 Fair CLR 59 30.9 35% 30.06 0.0
01 15:55 NW 17 G 25 10.00 Partly Cloudy SCT070 59.9 31.8 35% 30.07 0.0
01 15:35 N 16 G 25 10.00 Mostly Cloudy BKN070 60.1 32.4 35% 30.07 0.0
01 15:15 NW 15 G 25 10.00 Partly Cloudy SCT070 60.3 33.4 37% 30.08 0.0
01 14:55 N 16 G 26 10.00 Partly Cloudy SCT070 59.4 32 36% 30.08 0.0
01 14:35 NW 16 G 23 10.00 Fair CLR 59 32.2 36% 30.08 0.0
01 14:15 N 13 G 24 10.00 Partly Cloudy SCT065 58.5 33.8 40% 30.08 0.0
01 13:55 N 17 G 26 10.00 Partly Cloudy SCT065 58.6 33.6 39% 30.08 0.0
01 13:35 NW 14 G 18 10.00 Fair CLR 58.3 35.1 42% 30.08 0.0
01 13:15 N 16 G 23 10.00 Fair CLR 57.6 34.7 42% 30.08 0.0
01 12:55 NW 12 G 20 10.00 Fair CLR 57.9 34.3 58.1 37.6 41% 30.09 0.0
01 12:35 N 15 G 21 10.00 Fair CLR 57.9 32.4 38% 30.09 0.0
01 12:15 NW 10 G 24 10.00 Fair CLR 57.4 30.7 36% 30.1 0.0
01 11:55 NW 17 G 21 10.00 Fair CLR 56.7 31.3 38% 30.09 0.0
01 11:35 NW 16 G 20 10.00 Fair CLR 56.1 34.2 44% 30.09 0.0
01 11:15 N 14 G 23 10.00 Fair CLR 55.8 34.7 45% 30.09 0.0
01 10:55 NW 12 G 20 10.00 Fair CLR 54.7 33.8 45% 30.08 0.0
01 10:35 N 13 G 20 10.00 Fair CLR 54.1 34.2 47% 30.08 0.0
01 10:15 N 9 10.00 Fair CLR 53.1 35.1 51% 30.08 0.0
01 09:55 N 10 10.00 Fair CLR 51.8 35.8 55% 30.08 0.0
01 09:35 NW 9 10.00 Fair CLR 50 38.1 64% 47 30.08 0.0
01 09:15 W 12 10.00 Fair CLR 48.2 37.4 66% 44 30.09 0.0
01 08:55 W 13 10.00 Fair CLR 48.2 37.6 67% 43 30.08 0.0
01 08:35 W 9 10.00 Fair CLR 46.6 36.7 69% 43 30.08 0.0
01 08:15 W 10 10.00 Fair CLR 44.8 35.4 70% 40 30.09 0.0
01 07:55 NW 9 10.00 Fair CLR 43.5 34.5 71% 39 30.1 0.0
01 07:35 W 10 10.00 Fair CLR 41.4 34.3 76% 36 30.1 0.0
01 07:15 W 10 10.00 Fair CLR 39 33.8 82% 33 30.08 0.0
01 06:55 W 10 10.00 Fair CLR 37.4 33.3 40.6 37 85% 31 30.08 0.0
01 06:35 W 12 10.00 Fair CLR 37.4 32.7 83% 30 30.07 0.0
01 06:15 W 10 10.00 Partly Cloudy SCT090 37.6 32.5 82% 31 30.07 0.0
01 05:55 W 9 10.00 Partly Cloudy SCT090 38.3 32.5 80% 33 30.07 0.0
01 05:35 W 10 10.00 Partly Cloudy SCT090 37.8 32.4 81% 31 30.06 0.0
01 05:15 SW 10 10.00 Partly Cloudy SCT090 39.4 32 75% 33 30.06 0.0
01 04:55 SW 9 10.00 Fair CLR 39.6 32 74% 34 30.06 0.0
01 04:35 SW 10 10.00 Fair CLR 39.6 32 74% 34 30.07 0.0
01 04:15 SW 9 10.00 Fair CLR 38.8 32.2 77% 33 30.07 0.0
01 03:55 SW 9 10.00 Fair CLR 39.2 32 75% 34 30.07 0.0
01 03:35 SW 9 10.00 Fair CLR 39.6 32.2 75% 34 30.08 0.0
01 03:15 SW 9 10.00 Fair CLR 39.2 32 75% 34 30.08 0.0
01 02:55 W 9 10.00 Fair CLR 39.4 32 75% 34 30.08 0.0
01 02:35 W 9 10.00 Fair CLR 38.8 32.2 77% 33 30.09 0.0
01 02:15 W 9 10.00 Fair CLR 38.8 32.4 78% 33 30.1 0.0
01 01:55 SW 8 10.00 Fair CLR 39.2 32 75% 34 30.1 0.0
01 01:35 SW 6 10.00 Fair CLR 40.5 32 72% 37 30.11 0.0
01 01:15 W 7 10.00 Fair CLR 39.6 32 74% 35 30.11 0.0
01 00:55 W 7 10.00 Fair CLR 40.3 32 54.5 40.3 72% 36 30.12 0.0
01 00:35 Calm 10.00 Fair CLR 43 30.9 63% 30.11 0.0
01 00:15 Calm 10.00 Fair CLR 43.9 30.7 60% 30.12 0.0
30 23:55 NW 3 10.00 Fair CLR 44.1 30.7 60% 30.12 0.0
30 23:35 NW 3 10.00 Fair CLR 44.6 31.1 59% 30.12 0.0
30 23:15 NW 3 10.00 Fair CLR 45.5 31.3 58% 30.12 0.0
30 22:55 NW 5 10.00 Fair CLR 45.9 31.1 56% 44 30.12 0.0
30 22:35 NW 6 10.00 Fair CLR 45.9 31.3 57% 43 30.12 0.0
30 22:15 NW 6 10.00 Fair CLR 45.5 32 59% 43 30.12 0.0
30 21:55 NW 5 10.00 Fair CLR 46.8 32 57% 45 30.11 0.0
30 21:35 N 6 10.00 Fair CLR 46.8 32.2 57% 44 30.11 0.0
30 21:15 N 7 10.00 Fair CLR 47.3 32.4 56% 44 30.1 0.0
30 20:55 N 6 10.00 Fair CLR 48.4 32.2 54% 46 30.09 0.0
30 20:35 N 6 10.00 Partly Cloudy SCT100 48.9 32.9 54% 47 30.09 0.0
30 20:15 N 9 10.00 Overcast SCT085 OVC100 51.3 32.4 49% 30.08 0.0
30 19:55 N 9 10.00 Overcast SCT075 BKN085 OVC100 52.3 32.5 47% 30.08 0.0
30 19:35 N 12 10.00 Overcast OVC100 53.2 32.2 45% 30.08 0.0
30 19:15 N 13 G 16 10.00 Overcast OVC100 54 32.7 45% 30.07 0.0
30 18:55 N 9 10.00 Overcast SCT065 SCT080 OVC100 54.7 34.2 59.5 54.7 46% 30.07 0.0
30 18:35 N 13 G 17 10.00 Overcast OVC090 55.4 35.1 46% 30.07 0.0
30 18:15 N 12 G 18 10.00 Overcast SCT070 SCT075 OVC090 55.4 36 48% 30.07 0.0
30 17:55 N 13 G 18 10.00 Mostly Cloudy SCT060 BKN080 BKN085 55.6 36 48% 30.07 0.0
30 17:35 N 14 10.00 Mostly Cloudy SCT070 BKN080 55 35.6 48% 30.06 0.0
30 17:15 N 9 10.00 Overcast BKN060 OVC075 56.3 35.4 46% 30.06 0.0
30 16:55 N 14 G 22 10.00 Overcast SCT060 SCT075 OVC085 59 35.8 42% 30.06 0.0
30 16:35 N 13 G 22 10.00 Mostly Cloudy SCT065 BKN085 57.2 34.3 42% 30.06 0.0
30 16:15 N 13 G 18 10.00 Mostly Cloudy SCT065 SCT075 BKN085 59.5 35.8 41% 30.06 0.0
30 15:55 N 12 G 21 10.00 Mostly Cloudy SCT065 BKN080 BKN085 59.5 36.5 42% 30.06 0.0
30 15:35 N 16 G 23 10.00 Mostly Cloudy BKN065 BKN080 58.3 35.6 43% 30.08 0.0
30 15:15 NE 14 G 20 10.00 Partly Cloudy SCT055 58.3 36.1 44% 30.08 0.0
30 14:55 N 16 G 23 10.00 Partly Cloudy SCT046 SCT065 58.1 38.5 48% 30.08 0.0
30 14:35 NE 15 G 22 10.00 Mostly Cloudy BKN044 BKN050 BKN065 56.7 40.1 54% 30.07 0.0
30 14:15 N 15 G 20 10.00 Mostly Cloudy BKN041 BKN048 BKN050 57.6 41 54% 30.07 0.0
30 13:55 N 15 G 24 10.00 Overcast BKN039 BKN049 OVC070 58.3 42.6 56% 30.07 0.0
30 13:35 N 13 10.00 Mostly Cloudy BKN037 BKN050 BKN070 57.9 43.5 59% 30.07 0.0
30 13:15 N 18 G 25 10.00 Overcast BKN039 BKN047 OVC090 58.3 44.2 60% 30.07 0.0
30 12:55 N 13 G 21 10.00 Overcast BKN039 BKN050 OVC070 57.4 43 58.6 46.9 59% 30.07 0.0
30 12:35 N 16 G 21 10.00 Mostly Cloudy BKN037 BKN043 BKN050 57.2 43.5 60% 30.08 0.0
30 12:15 N 15 G 20 10.00 Overcast BKN034 BKN040 OVC100 58.3 44.6 61% 30.08 0.0
30 11:55 NW 12 10.00 Overcast BKN032 BKN042 OVC100 57 45.7 66% 30.08 0.0
30 11:35 N 13 10.00 Mostly Cloudy SCT030 BKN100 57.4 45.7 65% 30.08 0.0
30 11:15 NW 14 G 18 10.00 Mostly Cloudy SCT028 BKN100 57.7 46.4 66% 30.08 0.0
30 10:55 NW 13 G 18 10.00 Partly Cloudy SCT100 56.3 45.9 68% 30.08 0.0
30 10:35 NW 13 10.00 Mostly Cloudy BKN100 56.1 45 66% 30.07 0.0
30 10:15 NW 10 G 16 10.00 Mostly Cloudy BKN100 55.2 45.5 70% 30.07 0.0
30 09:55 NW 10 10.00 Mostly Cloudy BKN100 53.6 45 73% 30.07 0.0
30 09:35 W 9 10.00 Overcast OVC100 53.4 45.1 74% 30.07 0.0
30 09:15 W 8 10.00 Mostly Cloudy BKN100 52.3 44.4 75% 30.06 0.0
30 08:55 NW 9 10.00 Partly Cloudy SCT100 52.5 45 76% 30.05 0.0
30 08:35 W 10 10.00 Fair CLR 51.6 44.6 77% 30.05 0.0
30 08:15 W 10 10.00 Fair CLR 51.3 44.2 77% 30.04 0.0
30 07:55 W 12 10.00 Fair CLR 50.2 44.4 81% 30.04 0.0
30 07:35 W 13 10.00 Fair CLR 49.5 43.9 81% 45 30.04 0.0
30 07:15 W 12 10.00 Fair CLR 48.4 43 82% 44 30.04 0.0
30 06:55 W 10 10.00 Partly Cloudy SCT095 46.8 42.6 49.1 45.5 86% 42 30.04 0.0
30 06:35 W 10 10.00 Fair CLR 46.4 41.9 84% 42 30.04 0.0
30 06:15 W 9 10.00 Fair CLR 46.6 42.1 84% 43 30.03 0.0
30 05:55 SW 12 10.00 Fair CLR 47.3 41.9 82% 43 30.03 0.0
30 05:35 SW 10 10.00 Fair CLR 46.8 41.9 83% 42 30.03 0.0
30 05:15 SW 9 10.00 Partly Cloudy SCT075 46.8 42.1 84% 43 30.04 0.0
30 04:55 SW 9 10.00 Partly Cloudy SCT060 SCT075 SCT120 46.9 41.9 83% 43 30.03 0.0
30 04:35 SW 9 10.00 Partly Cloudy SCT060 SCT120 47.3 41.9 82% 43 30.03 0.0
30 04:15 SW 8 10.00 Partly Cloudy SCT065 46 41 83% 42 30.04 0.0
30 03:55 S 6 10.00 Partly Cloudy SCT065 SCT075 46.2 41 82% 44 30.04 0.0
30 03:35 S 7 10.00 Mostly Cloudy BKN065 BKN075 46.8 41.2 81% 44 30.04 0.0
30 03:15 S 6 10.00 Partly Cloudy SCT065 SCT085 46.2 40.1 79% 44 30.05 0.0
30 02:55 S 6 10.00 Overcast BKN065 OVC075 47.5 41 78% 45 30.06 0.0
30 02:35 SW 8 10.00 Overcast SCT065 OVC100 48.4 41 76% 45 30.08 0.0
30 02:15 SW 8 10.00 Overcast SCT055 BKN065 OVC100 47.8 41.5 79% 45 30.08 0.0
30 01:55 W 9 10.00 Drizzle BKN060 OVC070 47.8 42.3 81% 44 30.09 0.0
30 01:35 SW 5 10.00 Overcast BKN070 BKN080 OVC100 48.6 40.5 74% 47 30.09 0.0
30 01:15 S 7 10.00 Overcast OVC100 48.2 39.7 73% 46 30.08 0.0
30 00:55 S 6 10.00 Overcast SCT075 OVC100 47.3 40.3 59.4 45.9 77% 45 30.08 0.0
30 00:15 S 5 10.00 Mostly Cloudy BKN090 BKN110 48.2 38.8 70% 47 30.08 0.0
29 23:55 S 5 10.00 Partly Cloudy SCT090 SCT120 46 38.7 76% 44 30.08 0.0
29 23:35 S 6 10.00 Partly Cloudy SCT120 47.7 37.6 68% 45 30.08 0.0
29 23:15 S 6 10.00 Fair CLR 47.7 37.9 69% 45 30.09 0.0
29 22:55 S 6 10.00 Fair CLR 49.1 39.2 69% 47 30.09 0.0
29 22:15 S 5 10.00 Fair CLR 51.6 38.5 61% 30.09 0.0
29 21:55 S 5 10.00 Fair CLR 52.2 38.3 59% 30.09 0.0
29 21:35 S 3 10.00 Fair CLR 53.6 37.8 55% 30.08 0.0
29 21:15 S 5 10.00 Fair CLR 54 37.2 53% 30.08 0.0
29 20:55 S 5 10.00 Fair CLR 54.1 38.1 55% 30.07 0.0
29 20:35 E 3 10.00 Fair CLR 55.6 35.1 46% 30.07 0.0
29 20:15 E 3 10.00 Fair CLR 56.1 36.3 48% 30.06 0.0
29 19:55 Calm 10.00 Fair CLR 56.3 38.3 51% 30.06 0.0
29 19:35 NE 6 10.00 Fair CLR 57.2 38.5 50% 30.06 0.0
29 19:15 NE 5 10.00 Fair CLR 59 35.8 42% 30.06 0.0
29 18:55 NE 5 10.00 Fair CLR 59.5 36.9 61.2 55.9 43% 30.06 0.0
29 18:35 Calm 10.00 Fair CLR 60.1 36 41% 30.06 0.0
29 18:15 Calm 10.00 Partly Cloudy SCT075 60.1 37.6 43% 30.07 0.0
29 17:55 N 7 10.00 Partly Cloudy SCT075 59.5 37.2 44% 30.08 0.0
29 17:35 N 9 10.00 Fair CLR 60.8 37.8 43% 30.07 0.0
29 16:55 N 9 10.00 Fair CLR 61.2 37.4 41% 30.08 0.0
29 16:35 N 8 10.00 Fair CLR 58.6 36.1 43% 30.08 0.0
29 16:15 N 5 10.00 Partly Cloudy SCT075 59.9 37.6 44% 30.09 0.0
29 15:55 Calm 10.00 Partly Cloudy SCT075 57.6 35.1 43% 30.1 0.0
Date Time (cdt) Wind (mph) Vis. (mi.) Weather Sky Cond. Air Dwpt Max. Min. Relative Humidity Wind Chill (°F) Heat Index (°F) altimeter (in) sea level (mb) 1 hr 3 hr 6 hr
6 hour
Temperature (ºF) Pressure Precipitation (in)